Wtr Mill, New York
Current Conditions -  °F | °C
As of 6:53 PM on Friday 19 Dec 2014 (Local Time) from KFOK Reporting Station
Clear Clear  
Wind Chill: -5°   Ceiling: Unl
Heat Index:   Visibility: 10mi
Dew Point: -6°   Wind: 13mph
Humidity: 64%   Direction: 340°NNW
Pressure: 30.13"   Gusts: 20mph
Location:  40.9217°N, 72.3434°W
Report Text: KFOK 192353Z 34011G17KT 10SM CLR 00/M06 A3013 RMK AO2 SLP201 T00001061 10056 20000 53028
Loading
Personal Weather Stations






























Interactive Weather Map New forecast layout! Learn more

10-Day Weather Forecast

Advertisements
Track Severe Weather on mobile